Arlington, CA

7:28 AM PST on February 19, 2017 (GMT -0800)
Airport Area | | Change Station
Active Advisory: Small Craft Advisory

Elev 748 ft 33.94 °N, 117.45 °W | Updated 9 seconds ago

Overcast
Overcast
52.5 °F
Feels Like 52.5 °F
N
0.0
Wind Variable Wind from WSW
Gusts 0.0 mph

Today
High -- | Low -- °F
--% Chance of Precip.
Yesterday
High -- | Low -- °F
Precip. -- in
Pressure 29.88 in
Visibility 10.0 miles
Clouds Few 1700 ft
Mostly Cloudy 2600 ft
Overcast 4600 ft
Dew Point 50 °F
Humidity 92%
Rainfall 0.00 in
Snow Depth Not available.
6:29 AM 5:37 PM
Last Quarter, 42% visible
SPECI KRAL 191522Z 00000KT 10SM FEW017 BKN026 OVC046 11/10 A2988 RMK AO2 T01110100
Pressure 29.88 in
Visibility 10.0 miles
Clouds Few 1700 ft
Mostly Cloudy 2600 ft
Overcast 4600 ft
Dew Point 50 °F
Humidity 92%
Rainfall 0.00 in
Snow Depth Not available.
6:29 AM 5:37 PM
Last Quarter, 42% visible
SPECI KRAL 191522Z 00000KT 10SM FEW017 BKN026 OVC046 11/10 A2988 RMK AO2 T01110100

Get Your Daily Forecast Email!

Thanks for signing up!

Be on the lookout for a verification email in your inbox.

You'll start receiving the daily forecast at 8 AM.

×

10-Day Weather Forecast

Almanac

Astronomy

Feb. 19, 2017 Rise Set
Actual Time
Civil Twilight
Nautical Twilight
Astronomical Twilight
Moon
Length of Visible Light
Length of Day
Tomorrow will be .
, % of the Moon is Illuminated

Today's Extremes

State Highs State Lows

Community

WunderPhotos

Upload Photos

1,962,540 photos uploaded!

WunderBlog® & News

Nearby

Air Quality

  Air Quality AQ Index Pollutant
Not available.

Snow Depth

Station Depth Elevation

Earthquake Activity

City Distance Mag. Time & Date
Minimum magnitude displayed is 2.5.

Coastal Water Temperatures

Place Temperature

Stations

Nearby Weather Stations

Station Location Temp. Windchill Dew Point Humidity Wind Precip. Elev Updated Type
                   

Watches & Warnings

Small Craft Advisory
Issued: 3:51 AM PST Feb. 19, 2017 – National Weather Service

... Small Craft Advisory remains in effect until 3 PM PST this
afternoon...

See the coastal waters forecast (cwflox) for more details.

Precautionary/preparedness actions...

A Small Craft Advisory means that hazardous sea conditions will
exist for small craft. Inexperienced mariners... especially those
operating smaller vessels should avoid navigating in these
conditions.